sensor_id;sensor_type;location;lat;lon;timestamp;temperature;humidity
546;DHT22;259;53.304;9.816;2023-04-24T00:00:08;16.30;82.60
546;DHT22;259;53.304;9.816;2023-04-24T00:02:35;16.40;82.80
546;DHT22;259;53.304;9.816;2023-04-24T00:05:05;16.30;82.80
546;DHT22;259;53.304;9.816;2023-04-24T00:07:32;16.30;82.80
546;DHT22;259;53.304;9.816;2023-04-24T00:09:58;16.30;82.80
546;DHT22;259;53.304;9.816;2023-04-24T00:12:24;16.30;82.80
546;DHT22;259;53.304;9.816;2023-04-24T00:14:50;16.30;83.00
546;DHT22;259;53.304;9.816;2023-04-24T00:17:16;16.30;83.00
546;DHT22;259;53.304;9.816;2023-04-24T00:19:45;16.30;83.00
546;DHT22;259;53.304;9.816;2023-04-24T00:22:11;16.30;83.10
546;DHT22;259;53.304;9.816;2023-04-24T00:24:39;16.20;83.10
546;DHT22;259;53.304;9.816;2023-04-24T00:27:04;16.30;83.10
546;DHT22;259;53.304;9.816;2023-04-24T00:29:30;16.30;83.20
546;DHT22;259;53.304;9.816;2023-04-24T00:31:56;16.20;83.10
546;DHT22;259;53.304;9.816;2023-04-24T00:34:22;16.20;83.20
546;DHT22;259;53.304;9.816;2023-04-24T00:36:48;16.20;83.30
546;DHT22;259;53.304;9.816;2023-04-24T00:39:18;16.20;83.40
546;DHT22;259;53.304;9.816;2023-04-24T00:41:45;16.20;83.40
546;DHT22;259;53.304;9.816;2023-04-24T00:44:11;16.20;83.60
546;DHT22;259;53.304;9.816;2023-04-24T00:46:37;16.20;83.40
546;DHT22;259;53.304;9.816;2023-04-24T00:49:04;16.20;83.30
546;DHT22;259;53.304;9.816;2023-04-24T00:51:31;16.20;83.00
546;DHT22;259;53.304;9.816;2023-04-24T00:53:58;16.20;82.90
546;DHT22;259;53.304;9.816;2023-04-24T00:56:24;16.20;82.90
546;DHT22;259;53.304;9.816;2023-04-24T00:58:50;16.20;82.80
546;DHT22;259;53.304;9.816;2023-04-24T01:01:17;16.20;82.90
546;DHT22;259;53.304;9.816;2023-04-24T01:03:46;16.10;82.80
546;DHT22;259;53.304;9.816;2023-04-24T01:06:12;16.10;82.80
546;DHT22;259;53.304;9.816;2023-04-24T01:08:38;16.10;82.80
546;DHT22;259;53.304;9.816;2023-04-24T01:11:05;16.10;82.90
546;DHT22;259;53.304;9.816;2023-04-24T01:13:32;16.10;82.90
546;DHT22;259;53.304;9.816;2023-04-24T01:15:58;16.10;83.00
546;DHT22;259;53.304;9.816;2023-04-24T01:18:24;16.10;83.20
546;DHT22;259;53.304;9.816;2023-04-24T01:20:51;16.10;83.10
546;DHT22;259;53.304;9.816;2023-04-24T01:23:19;16.10;83.10
546;DHT22;259;53.304;9.816;2023-04-24T01:25:45;16.00;83.10
546;DHT22;259;53.304;9.816;2023-04-24T01:28:11;16.00;83.10
546;DHT22;259;53.304;9.816;2023-04-24T01:30:39;16.00;83.20
546;DHT22;259;53.304;9.816;2023-04-24T01:33:05;16.00;83.20
546;DHT22;259;53.304;9.816;2023-04-24T01:35:31;16.00;83.10
546;DHT22;259;53.304;9.816;2023-04-24T01:37:56;16.00;83.20
546;DHT22;259;53.304;9.816;2023-04-24T01:40:22;15.90;83.30
546;DHT22;259;53.304;9.816;2023-04-24T01:42:48;15.90;83.20
546;DHT22;259;53.304;9.816;2023-04-24T01:45:13;15.90;83.20
546;DHT22;259;53.304;9.816;2023-04-24T01:47:39;15.90;83.30
546;DHT22;259;53.304;9.816;2023-04-24T01:50:06;15.90;83.40
546;DHT22;259;53.304;9.816;2023-04-24T01:52:32;15.90;83.40
546;DHT22;259;53.304;9.816;2023-04-24T01:55:02;15.90;83.30
546;DHT22;259;53.304;9.816;2023-04-24T01:57:30;15.90;83.40
546;DHT22;259;53.304;9.816;2023-04-24T01:59:56;15.90;83.40
546;DHT22;259;53.304;9.816;2023-04-24T02:02:22;15.90;83.30
546;DHT22;259;53.304;9.816;2023-04-24T02:04:50;15.80;83.10
546;DHT22;259;53.304;9.816;2023-04-24T02:07:16;15.80;83.20
546;DHT22;259;53.304;9.816;2023-04-24T02:09:41;15.80;83.20
546;DHT22;259;53.304;9.816;2023-04-24T02:12:07;15.80;83.10
546;DHT22;259;53.304;9.816;2023-04-24T02:14:33;15.80;83.10
546;DHT22;259;53.304;9.816;2023-04-24T02:16:59;15.80;83.20
546;DHT22;259;53.304;9.816;2023-04-24T02:19:26;15.80;83.20
546;DHT22;259;53.304;9.816;2023-04-24T02:21:51;15.80;83.10
546;DHT22;259;53.304;9.816;2023-04-24T02:24:17;15.70;83.00
546;DHT22;259;53.304;9.816;2023-04-24T02:26:43;15.70;83.00
546;DHT22;259;53.304;9.816;2023-04-24T02:29:09;15.70;82.90
546;DHT22;259;53.304;9.816;2023-04-24T02:31:34;15.70;83.00
546;DHT22;259;53.304;9.816;2023-04-24T02:34:00;15.70;83.00
546;DHT22;259;53.304;9.816;2023-04-24T02:36:26;15.70;83.00
546;DHT22;259;53.304;9.816;2023-04-24T02:38:51;15.70;82.90
546;DHT22;259;53.304;9.816;2023-04-24T02:41:17;15.60;82.80
546;DHT22;259;53.304;9.816;2023-04-24T02:43:43;15.60;83.40
546;DHT22;259;53.304;9.816;2023-04-24T02:46:08;15.60;82.60
546;DHT22;259;53.304;9.816;2023-04-24T02:48:34;15.60;82.70
546;DHT22;259;53.304;9.816;2023-04-24T02:51:00;15.60;82.70
546;DHT22;259;53.304;9.816;2023-04-24T02:53:26;15.60;82.70
546;DHT22;259;53.304;9.816;2023-04-24T02:55:51;15.60;82.60
546;DHT22;259;53.304;9.816;2023-04-24T02:58:17;15.60;82.60
546;DHT22;259;53.304;9.816;2023-04-24T03:00:45;15.60;82.60
546;DHT22;259;53.304;9.816;2023-04-24T03:03:12;15.50;82.50
546;DHT22;259;53.304;9.816;2023-04-24T03:05:37;15.50;82.60
546;DHT22;259;53.304;9.816;2023-04-24T03:08:03;15.50;82.50
546;DHT22;259;53.304;9.816;2023-04-24T03:10:29;15.50;82.30
546;DHT22;259;53.304;9.816;2023-04-24T03:12:55;15.50;82.00
546;DHT22;259;53.304;9.816;2023-04-24T03:15:20;15.60;82.10
546;DHT22;259;53.304;9.816;2023-04-24T03:17:46;15.50;81.90
546;DHT22;259;53.304;9.816;2023-04-24T03:20:12;15.50;81.80
546;DHT22;259;53.304;9.816;2023-04-24T03:22:37;15.50;81.70
546;DHT22;259;53.304;9.816;2023-04-24T03:25:03;15.50;81.80
546;DHT22;259;53.304;9.816;2023-04-24T03:27:30;15.40;81.60
546;DHT22;259;53.304;9.816;2023-04-24T03:29:56;15.50;81.70
546;DHT22;259;53.304;9.816;2023-04-24T03:32:22;15.40;81.50
546;DHT22;259;53.304;9.816;2023-04-24T03:34:48;15.40;81.50
546;DHT22;259;53.304;9.816;2023-04-24T03:37:15;15.40;81.50
546;DHT22;259;53.304;9.816;2023-04-24T03:39:42;15.40;81.40
546;DHT22;259;53.304;9.816;2023-04-24T03:42:08;15.40;81.40
546;DHT22;259;53.304;9.816;2023-04-24T03:44:34;15.40;81.40
546;DHT22;259;53.304;9.816;2023-04-24T03:47:00;15.30;81.20
546;DHT22;259;53.304;9.816;2023-04-24T03:49:26;15.30;81.00
546;DHT22;259;53.304;9.816;2023-04-24T03:51:52;15.30;80.90
546;DHT22;259;53.304;9.816;2023-04-24T03:54:18;15.30;81.00
546;DHT22;259;53.304;9.816;2023-04-24T03:56:44;15.30;80.90
546;DHT22;259;53.304;9.816;2023-04-24T03:59:11;15.30;80.80
546;DHT22;259;53.304;9.816;2023-04-24T04:01:36;15.30;80.80
546;DHT22;259;53.304;9.816;2023-04-24T04:04:03;15.30;80.50
546;DHT22;259;53.304;9.816;2023-04-24T04:06:29;15.20;80.30
546;DHT22;259;53.304;9.816;2023-04-24T04:08:57;15.20;80.40
546;DHT22;259;53.304;9.816;2023-04-24T04:11:23;15.20;80.20
546;DHT22;259;53.304;9.816;2023-04-24T04:13:48;15.20;80.20
546;DHT22;259;53.304;9.816;2023-04-24T04:16:14;15.20;80.20
546;DHT22;259;53.304;9.816;2023-04-24T04:18:42;15.20;80.00
546;DHT22;259;53.304;9.816;2023-04-24T04:21:08;15.20;79.90
546;DHT22;259;53.304;9.816;2023-04-24T04:23:34;15.10;79.80
546;DHT22;259;53.304;9.816;2023-04-24T04:26:00;15.10;79.90
546;DHT22;259;53.304;9.816;2023-04-24T04:28:26;15.10;79.70
546;DHT22;259;53.304;9.816;2023-04-24T04:30:52;15.10;79.70
546;DHT22;259;53.304;9.816;2023-04-24T04:33:20;15.10;79.70
546;DHT22;259;53.304;9.816;2023-04-24T04:35:46;15.10;79.70
546;DHT22;259;53.304;9.816;2023-04-24T04:38:17;15.00;79.60
546;DHT22;259;53.304;9.816;2023-04-24T04:40:44;15.00;79.50
546;DHT22;259;53.304;9.816;2023-04-24T04:43:10;15.00;79.50
546;DHT22;259;53.304;9.816;2023-04-24T04:45:37;15.00;79.50
546;DHT22;259;53.304;9.816;2023-04-24T04:48:04;15.00;79.40
546;DHT22;259;53.304;9.816;2023-04-24T04:50:31;15.00;79.50
546;DHT22;259;53.304;9.816;2023-04-24T04:52:57;15.00;79.40
546;DHT22;259;53.304;9.816;2023-04-24T04:55:22;15.00;79.20
546;DHT22;259;53.304;9.816;2023-04-24T04:57:48;14.90;79.20
546;DHT22;259;53.304;9.816;2023-04-24T05:00:14;14.90;79.10
546;DHT22;259;53.304;9.816;2023-04-24T05:02:40;14.90;79.10
546;DHT22;259;53.304;9.816;2023-04-24T05:05:07;14.90;79.10
546;DHT22;259;53.304;9.816;2023-04-24T05:07:33;14.90;78.90
546;DHT22;259;53.304;9.816;2023-04-24T05:09:58;14.90;78.90
546;DHT22;259;53.304;9.816;2023-04-24T05:12:24;14.80;78.80
546;DHT22;259;53.304;9.816;2023-04-24T05:14:50;14.80;78.80
546;DHT22;259;53.304;9.816;2023-04-24T05:17:16;14.80;78.80
546;DHT22;259;53.304;9.816;2023-04-24T05:19:42;14.80;78.70
546;DHT22;259;53.304;9.816;2023-04-24T05:22:07;14.80;78.70
546;DHT22;259;53.304;9.816;2023-04-24T05:24:35;14.80;78.70
546;DHT22;259;53.304;9.816;2023-04-24T05:27:02;14.80;78.70
546;DHT22;259;53.304;9.816;2023-04-24T05:29:28;14.80;78.70
546;DHT22;259;53.304;9.816;2023-04-24T05:31:56;14.80;78.70
546;DHT22;259;53.304;9.816;2023-04-24T05:34:22;14.70;78.60
546;DHT22;259;53.304;9.816;2023-04-24T05:36:48;14.70;78.60
546;DHT22;259;53.304;9.816;2023-04-24T05:39:14;14.70;78.50
546;DHT22;259;53.304;9.816;2023-04-24T05:41:40;14.70;78.50
546;DHT22;259;53.304;9.816;2023-04-24T05:44:06;14.70;78.40
546;DHT22;259;53.304;9.816;2023-04-24T05:46:31;14.70;78.30
546;DHT22;259;53.304;9.816;2023-04-24T05:48:57;14.70;78.20
546;DHT22;259;53.304;9.816;2023-04-24T05:51:23;14.70;78.10
546;DHT22;259;53.304;9.816;2023-04-24T05:53:49;14.70;78.10
546;DHT22;259;53.304;9.816;2023-04-24T05:56:15;14.70;78.10
546;DHT22;259;53.304;9.816;2023-04-24T05:58:41;14.70;78.20
546;DHT22;259;53.304;9.816;2023-04-24T06:01:07;14.70;78.20
546;DHT22;259;53.304;9.816;2023-04-24T06:03:32;14.70;78.10
546;DHT22;259;53.304;9.816;2023-04-24T06:05:58;14.70;78.20
546;DHT22;259;53.304;9.816;2023-04-24T06:08:24;14.60;78.10
546;DHT22;259;53.304;9.816;2023-04-24T06:10:50;14.60;78.10
546;DHT22;259;53.304;9.816;2023-04-24T06:13:16;14.60;78.20
546;DHT22;259;53.304;9.816;2023-04-24T06:15:43;14.60;78.10
546;DHT22;259;53.304;9.816;2023-04-24T06:18:08;14.60;78.10
546;DHT22;259;53.304;9.816;2023-04-24T06:20:35;14.60;78.10
546;DHT22;259;53.304;9.816;2023-04-24T06:23:01;14.60;78.10
546;DHT22;259;53.304;9.816;2023-04-24T06:25:28;14.60;78.10
546;DHT22;259;53.304;9.816;2023-04-24T06:27:54;14.60;78.10
546;DHT22;259;53.304;9.816;2023-04-24T06:30:20;14.60;78.10
546;DHT22;259;53.304;9.816;2023-04-24T06:32:46;14.60;78.80
546;DHT22;259;53.304;9.816;2023-04-24T06:35:12;14.60;78.20
546;DHT22;259;53.304;9.816;2023-04-24T06:37:39;14.50;78.20
546;DHT22;259;53.304;9.816;2023-04-24T06:40:06;14.50;78.10
546;DHT22;259;53.304;9.816;2023-04-24T06:42:32;14.50;78.10
546;DHT22;259;53.304;9.816;2023-04-24T06:44:57;14.50;78.00
546;DHT22;259;53.304;9.816;2023-04-24T06:47:23;14.50;78.10
546;DHT22;259;53.304;9.816;2023-04-24T06:49:49;14.50;78.10
546;DHT22;259;53.304;9.816;2023-04-24T06:52:16;14.50;78.20
546;DHT22;259;53.304;9.816;2023-04-24T06:54:42;14.40;78.10
546;DHT22;259;53.304;9.816;2023-04-24T06:57:08;14.40;78.30
546;DHT22;259;53.304;9.816;2023-04-24T06:59:34;14.40;78.20
546;DHT22;259;53.304;9.816;2023-04-24T07:02:00;14.40;78.30
546;DHT22;259;53.304;9.816;2023-04-24T07:04:25;14.40;78.40
546;DHT22;259;53.304;9.816;2023-04-24T07:06:51;14.40;78.30
546;DHT22;259;53.304;9.816;2023-04-24T07:09:19;14.40;78.30
546;DHT22;259;53.304;9.816;2023-04-24T07:11:45;14.40;78.50
546;DHT22;259;53.304;9.816;2023-04-24T07:14:11;14.40;78.60
546;DHT22;259;53.304;9.816;2023-04-24T07:16:37;14.40;78.50
546;DHT22;259;53.304;9.816;2023-04-24T07:19:03;14.40;78.70
546;DHT22;259;53.304;9.816;2023-04-24T07:21:29;14.40;78.60
546;DHT22;259;53.304;9.816;2023-04-24T07:23:59;14.40;78.80
546;DHT22;259;53.304;9.816;2023-04-24T07:26:26;14.40;78.80
546;DHT22;259;53.304;9.816;2023-04-24T07:28:53;14.40;78.90
546;DHT22;259;53.304;9.816;2023-04-24T07:31:19;14.40;78.70
546;DHT22;259;53.304;9.816;2023-04-24T07:33:44;14.40;78.90
546;DHT22;259;53.304;9.816;2023-04-24T07:36:10;14.40;78.90
546;DHT22;259;53.304;9.816;2023-04-24T07:38:41;14.40;79.00
546;DHT22;259;53.304;9.816;2023-04-24T07:41:07;14.40;78.90
546;DHT22;259;53.304;9.816;2023-04-24T07:43:33;14.40;79.00
546;DHT22;259;53.304;9.816;2023-04-24T07:45:59;14.40;79.10
546;DHT22;259;53.304;9.816;2023-04-24T07:48:26;14.40;79.10
546;DHT22;259;53.304;9.816;2023-04-24T07:50:52;14.40;79.00
546;DHT22;259;53.304;9.816;2023-04-24T07:53:18;14.40;79.10
546;DHT22;259;53.304;9.816;2023-04-24T07:55:44;14.40;79.00
546;DHT22;259;53.304;9.816;2023-04-24T07:58:09;14.40;79.00
546;DHT22;259;53.304;9.816;2023-04-24T08:00:35;14.40;79.00
546;DHT22;259;53.304;9.816;2023-04-24T08:03:01;14.40;78.90
546;DHT22;259;53.304;9.816;2023-04-24T08:05:27;14.30;78.80
546;DHT22;259;53.304;9.816;2023-04-24T08:07:54;14.30;78.90
546;DHT22;259;53.304;9.816;2023-04-24T08:10:23;14.30;78.90
546;DHT22;259;53.304;9.816;2023-04-24T08:12:49;14.30;79.10
546;DHT22;259;53.304;9.816;2023-04-24T08:15:15;14.30;79.00
546;DHT22;259;53.304;9.816;2023-04-24T08:17:41;14.30;79.10
546;DHT22;259;53.304;9.816;2023-04-24T08:20:11;14.30;79.20
546;DHT22;259;53.304;9.816;2023-04-24T08:22:41;14.30;79.10
546;DHT22;259;53.304;9.816;2023-04-24T08:25:08;14.30;79.00
546;DHT22;259;53.304;9.816;2023-04-24T08:27:34;14.30;78.90
546;DHT22;259;53.304;9.816;2023-04-24T08:30:03;14.40;79.00
546;DHT22;259;53.304;9.816;2023-04-24T08:32:29;14.40;78.90
546;DHT22;259;53.304;9.816;2023-04-24T08:34:56;14.30;78.80
546;DHT22;259;53.304;9.816;2023-04-24T08:37:23;14.40;78.80
546;DHT22;259;53.304;9.816;2023-04-24T08:39:49;14.40;78.70
546;DHT22;259;53.304;9.816;2023-04-24T08:42:17;14.40;78.70
546;DHT22;259;53.304;9.816;2023-04-24T08:44:44;14.40;78.60
546;DHT22;259;53.304;9.816;2023-04-24T08:47:10;14.40;78.70
546;DHT22;259;53.304;9.816;2023-04-24T08:49:37;14.40;78.70
546;DHT22;259;53.304;9.816;2023-04-24T08:52:04;14.40;78.80
546;DHT22;259;53.304;9.816;2023-04-24T08:54:31;14.40;78.90
546;DHT22;259;53.304;9.816;2023-04-24T08:57:00;14.40;78.70
546;DHT22;259;53.304;9.816;2023-04-24T08:59:30;14.30;78.70
546;DHT22;259;53.304;9.816;2023-04-24T09:01:56;14.40;78.70
546;DHT22;259;53.304;9.816;2023-04-24T09:04:24;14.30;78.60
546;DHT22;259;53.304;9.816;2023-04-24T09:06:51;14.30;78.60
546;DHT22;259;53.304;9.816;2023-04-24T09:09:20;14.30;78.60
546;DHT22;259;53.304;9.816;2023-04-24T09:11:46;14.30;78.50
546;DHT22;259;53.304;9.816;2023-04-24T09:14:17;14.30;78.60
546;DHT22;259;53.304;9.816;2023-04-24T09:16:43;14.30;78.50
546;DHT22;259;53.304;9.816;2023-04-24T09:19:09;14.30;78.60
546;DHT22;259;53.304;9.816;2023-04-24T09:21:35;14.30;78.50
546;DHT22;259;53.304;9.816;2023-04-24T09:24:04;14.30;78.60
546;DHT22;259;53.304;9.816;2023-04-24T09:26:33;14.30;78.50
546;DHT22;259;53.304;9.816;2023-04-24T09:29:00;14.30;78.50
546;DHT22;259;53.304;9.816;2023-04-24T09:31:31;14.30;78.60
546;DHT22;259;53.304;9.816;2023-04-24T09:33:59;14.30;78.70
546;DHT22;259;53.304;9.816;2023-04-24T09:36:29;14.30;78.70
546;DHT22;259;53.304;9.816;2023-04-24T09:39:03;14.30;78.70
546;DHT22;259;53.304;9.816;2023-04-24T09:41:32;14.30;78.80
546;DHT22;259;53.304;9.816;2023-04-24T09:44:14;14.30;78.80
546;DHT22;259;53.304;9.816;2023-04-24T09:46:50;14.30;78.90
546;DHT22;259;53.304;9.816;2023-04-24T09:49:24;14.30;79.00
546;DHT22;259;53.304;9.816;2023-04-24T09:51:52;14.20;79.00
546;DHT22;259;53.304;9.816;2023-04-24T09:54:27;14.20;78.90
546;DHT22;259;53.304;9.816;2023-04-24T09:56:52;14.20;78.90
546;DHT22;259;53.304;9.816;2023-04-24T09:59:20;14.20;79.00
546;DHT22;259;53.304;9.816;2023-04-24T10:01:46;14.20;79.00
546;DHT22;259;53.304;9.816;2023-04-24T10:04:21;14.20;79.00
546;DHT22;259;53.304;9.816;2023-04-24T10:06:50;14.20;79.00
546;DHT22;259;53.304;9.816;2023-04-24T10:09:18;14.20;78.90
546;DHT22;259;53.304;9.816;2023-04-24T10:11:46;14.20;78.90
546;DHT22;259;53.304;9.816;2023-04-24T10:14:15;14.20;78.90
546;DHT22;259;53.304;9.816;2023-04-24T10:16:46;14.20;79.30
546;DHT22;259;53.304;9.816;2023-04-24T10:19:13;14.20;78.80
546;DHT22;259;53.304;9.816;2023-04-24T10:21:41;14.20;78.70
546;DHT22;259;53.304;9.816;2023-04-24T10:24:16;14.20;78.80
546;DHT22;259;53.304;9.816;2023-04-24T10:26:44;14.20;78.80
546;DHT22;259;53.304;9.816;2023-04-24T10:29:12;14.20;78.70
546;DHT22;259;53.304;9.816;2023-04-24T10:31:39;14.20;78.60
546;DHT22;259;53.304;9.816;2023-04-24T10:34:09;14.20;78.50
546;DHT22;259;53.304;9.816;2023-04-24T10:36:36;14.20;78.40
546;DHT22;259;53.304;9.816;2023-04-24T10:39:14;14.20;78.50
546;DHT22;259;53.304;9.816;2023-04-24T10:41:40;14.20;78.50
546;DHT22;259;53.304;9.816;2023-04-24T10:44:11;14.20;78.50
546;DHT22;259;53.304;9.816;2023-04-24T10:46:39;14.30;78.50
546;DHT22;259;53.304;9.816;2023-04-24T10:49:08;14.30;78.50
546;DHT22;259;53.304;9.816;2023-04-24T10:54:42;14.30;78.60
546;DHT22;259;53.304;9.816;2023-04-24T10:59:49;14.30;78.40
546;DHT22;259;53.304;9.816;2023-04-24T11:02:17;14.30;78.40
546;DHT22;259;53.304;9.816;2023-04-24T11:04:44;14.40;78.40
546;DHT22;259;53.304;9.816;2023-04-24T11:07:10;14.30;78.30
546;DHT22;259;53.304;9.816;2023-04-24T11:09:37;14.30;78.10
546;DHT22;259;53.304;9.816;2023-04-24T11:12:09;14.30;78.90
546;DHT22;259;53.304;9.816;2023-04-24T11:14:59;14.30;78.20
546;DHT22;259;53.304;9.816;2023-04-24T11:17:35;14.30;78.20
546;DHT22;259;53.304;9.816;2023-04-24T11:20:11;14.30;78.60
546;DHT22;259;53.304;9.816;2023-04-24T11:22:41;14.30;78.20
546;DHT22;259;53.304;9.816;2023-04-24T11:25:07;14.40;78.20
546;DHT22;259;53.304;9.816;2023-04-24T11:27:44;14.40;78.10
546;DHT22;259;53.304;9.816;2023-04-24T11:30:17;14.40;77.90
546;DHT22;259;53.304;9.816;2023-04-24T11:32:47;14.40;77.80
546;DHT22;259;53.304;9.816;2023-04-24T11:35:17;14.40;77.70
546;DHT22;259;53.304;9.816;2023-04-24T11:37:46;14.40;77.60
546;DHT22;259;53.304;9.816;2023-04-24T11:40:15;14.40;77.40
546;DHT22;259;53.304;9.816;2023-04-24T11:42:46;14.40;77.30
546;DHT22;259;53.304;9.816;2023-04-24T11:45:18;14.40;77.20
546;DHT22;259;53.304;9.816;2023-04-24T11:47:47;14.40;77.10
546;DHT22;259;53.304;9.816;2023-04-24T11:50:15;14.40;77.00
546;DHT22;259;53.304;9.816;2023-04-24T11:52:43;14.40;76.90
546;DHT22;259;53.304;9.816;2023-04-24T11:55:30;14.40;76.80
546;DHT22;259;53.304;9.816;2023-04-24T11:57:57;14.40;76.90
546;DHT22;259;53.304;9.816;2023-04-24T12:00:27;14.40;77.00
546;DHT22;259;53.304;9.816;2023-04-24T12:03:08;14.40;76.90
546;DHT22;259;53.304;9.816;2023-04-24T12:05:35;14.40;76.90
546;DHT22;259;53.304;9.816;2023-04-24T12:08:01;14.40;76.90
546;DHT22;259;53.304;9.816;2023-04-24T12:10:29;14.40;76.90
546;DHT22;259;53.304;9.816;2023-04-24T12:12:56;14.40;76.80
546;DHT22;259;53.304;9.816;2023-04-24T12:15:23;14.40;76.90
546;DHT22;259;53.304;9.816;2023-04-24T12:17:54;14.40;76.80
546;DHT22;259;53.304;9.816;2023-04-24T12:20:31;14.30;76.70
546;DHT22;259;53.304;9.816;2023-04-24T12:23:00;14.30;76.70
546;DHT22;259;53.304;9.816;2023-04-24T12:25:33;14.30;76.80
546;DHT22;259;53.304;9.816;2023-04-24T12:30:34;14.30;76.80
546;DHT22;259;53.304;9.816;2023-04-24T12:33:02;14.30;76.80
546;DHT22;259;53.304;9.816;2023-04-24T12:35:30;14.30;76.90
546;DHT22;259;53.304;9.816;2023-04-24T12:38:11;14.30;76.80
546;DHT22;259;53.304;9.816;2023-04-24T12:40:38;14.30;76.90
546;DHT22;259;53.304;9.816;2023-04-24T12:43:15;14.30;76.90
546;DHT22;259;53.304;9.816;2023-04-24T12:45:42;14.30;77.00
546;DHT22;259;53.304;9.816;2023-04-24T12:48:08;14.30;76.90
546;DHT22;259;53.304;9.816;2023-04-24T12:50:33;14.20;76.90
546;DHT22;259;53.304;9.816;2023-04-24T12:52:59;14.20;77.80
546;DHT22;259;53.304;9.816;2023-04-24T12:55:25;14.20;77.00
546;DHT22;259;53.304;9.816;2023-04-24T12:57:51;14.20;77.00
546;DHT22;259;53.304;9.816;2023-04-24T13:00:17;14.30;77.10
546;DHT22;259;53.304;9.816;2023-04-24T13:02:43;14.30;76.90
546;DHT22;259;53.304;9.816;2023-04-24T13:05:09;14.20;76.80
546;DHT22;259;53.304;9.816;2023-04-24T13:07:34;14.30;77.00
546;DHT22;259;53.304;9.816;2023-04-24T13:10:00;14.30;77.00
546;DHT22;259;53.304;9.816;2023-04-24T13:12:26;14.20;76.90
546;DHT22;259;53.304;9.816;2023-04-24T13:14:52;14.20;76.90
546;DHT22;259;53.304;9.816;2023-04-24T13:17:18;14.20;77.00
546;DHT22;259;53.304;9.816;2023-04-24T13:19:44;14.20;77.00
546;DHT22;259;53.304;9.816;2023-04-24T13:22:11;14.20;77.70
546;DHT22;259;53.304;9.816;2023-04-24T13:24:38;14.30;77.60
546;DHT22;259;53.304;9.816;2023-04-24T13:27:08;14.30;77.60
546;DHT22;259;53.304;9.816;2023-04-24T13:29:34;14.30;77.50
546;DHT22;259;53.304;9.816;2023-04-24T13:32:00;14.30;77.40
546;DHT22;259;53.304;9.816;2023-04-24T13:34:26;14.30;77.50
546;DHT22;259;53.304;9.816;2023-04-24T13:36:54;14.30;77.40
546;DHT22;259;53.304;9.816;2023-04-24T13:39:21;14.20;77.50
546;DHT22;259;53.304;9.816;2023-04-24T13:41:47;14.20;77.40
546;DHT22;259;53.304;9.816;2023-04-24T13:44:17;14.20;77.50
546;DHT22;259;53.304;9.816;2023-04-24T13:46:44;14.30;77.50
546;DHT22;259;53.304;9.816;2023-04-24T13:49:14;14.20;77.30
546;DHT22;259;53.304;9.816;2023-04-24T13:51:41;14.30;77.50
546;DHT22;259;53.304;9.816;2023-04-24T13:54:07;14.30;78.10
546;DHT22;259;53.304;9.816;2023-04-24T13:56:33;14.30;77.20
546;DHT22;259;53.304;9.816;2023-04-24T13:58:58;14.30;77.20
546;DHT22;259;53.304;9.816;2023-04-24T14:01:24;14.30;77.00
546;DHT22;259;53.304;9.816;2023-04-24T14:03:54;14.30;77.10
546;DHT22;259;53.304;9.816;2023-04-24T14:06:21;14.30;77.30
546;DHT22;259;53.304;9.816;2023-04-24T14:08:47;14.30;77.50
546;DHT22;259;53.304;9.816;2023-04-24T14:11:13;14.30;77.60
546;DHT22;259;53.304;9.816;2023-04-24T14:13:40;14.30;77.80
546;DHT22;259;53.304;9.816;2023-04-24T14:16:07;14.20;77.90
546;DHT22;259;53.304;9.816;2023-04-24T14:18:33;14.20;78.10
546;DHT22;259;53.304;9.816;2023-04-24T14:20:59;14.20;78.20
546;DHT22;259;53.304;9.816;2023-04-24T14:23:26;14.20;78.20
546;DHT22;259;53.304;9.816;2023-04-24T14:25:52;14.20;78.10
546;DHT22;259;53.304;9.816;2023-04-24T14:28:19;14.20;78.20
546;DHT22;259;53.304;9.816;2023-04-24T14:30:46;14.30;78.00
546;DHT22;259;53.304;9.816;2023-04-24T14:33:12;14.20;77.80
546;DHT22;259;53.304;9.816;2023-04-24T14:35:39;14.20;77.60
546;DHT22;259;53.304;9.816;2023-04-24T14:38:05;14.30;77.50
546;DHT22;259;53.304;9.816;2023-04-24T14:40:31;14.30;77.50
546;DHT22;259;53.304;9.816;2023-04-24T14:42:58;14.30;78.80
546;DHT22;259;53.304;9.816;2023-04-24T14:45:26;14.30;78.80
546;DHT22;259;53.304;9.816;2023-04-24T14:47:52;14.30;78.90
546;DHT22;259;53.304;9.816;2023-04-24T14:50:19;14.30;78.60
546;DHT22;259;53.304;9.816;2023-04-24T14:52:45;14.40;79.10
546;DHT22;259;53.304;9.816;2023-04-24T14:55:11;14.40;79.00
546;DHT22;259;53.304;9.816;2023-04-24T14:57:37;14.40;79.20
546;DHT22;259;53.304;9.816;2023-04-24T15:00:04;14.40;80.00
546;DHT22;259;53.304;9.816;2023-04-24T15:02:33;14.50;81.10
546;DHT22;259;53.304;9.816;2023-04-24T15:04:59;14.50;80.40
546;DHT22;259;53.304;9.816;2023-04-24T15:07:25;14.50;80.20
546;DHT22;259;53.304;9.816;2023-04-24T15:09:50;14.50;80.50
546;DHT22;259;53.304;9.816;2023-04-24T15:12:16;14.50;80.70
546;DHT22;259;53.304;9.816;2023-04-24T15:14:42;14.50;80.70
546;DHT22;259;53.304;9.816;2023-04-24T15:17:08;14.50;80.80
546;DHT22;259;53.304;9.816;2023-04-24T15:19:33;14.60;80.80
546;DHT22;259;53.304;9.816;2023-04-24T15:21:59;14.50;80.70
546;DHT22;259;53.304;9.816;2023-04-24T15:24:25;14.50;80.70
546;DHT22;259;53.304;9.816;2023-04-24T15:26:50;14.50;80.90
546;DHT22;259;53.304;9.816;2023-04-24T15:29:16;14.50;80.80
546;DHT22;259;53.304;9.816;2023-04-24T15:31:42;14.60;81.00
546;DHT22;259;53.304;9.816;2023-04-24T15:34:07;14.60;81.00
546;DHT22;259;53.304;9.816;2023-04-24T15:36:34;14.60;81.10
546;DHT22;259;53.304;9.816;2023-04-24T15:39:01;14.50;81.00
546;DHT22;259;53.304;9.816;2023-04-24T15:41:27;14.50;80.90
546;DHT22;259;53.304;9.816;2023-04-24T15:43:53;14.50;80.60
546;DHT22;259;53.304;9.816;2023-04-24T15:46:18;14.50;80.40
546;DHT22;259;53.304;9.816;2023-04-24T15:48:44;14.50;80.20
546;DHT22;259;53.304;9.816;2023-04-24T15:51:10;14.40;80.10
546;DHT22;259;53.304;9.816;2023-04-24T15:53:36;14.40;80.10
546;DHT22;259;53.304;9.816;2023-04-24T15:56:02;14.40;80.10
546;DHT22;259;53.304;9.816;2023-04-24T15:58:28;14.40;80.30
546;DHT22;259;53.304;9.816;2023-04-24T16:00:54;14.40;80.20
546;DHT22;259;53.304;9.816;2023-04-24T16:03:20;14.40;80.00
546;DHT22;259;53.304;9.816;2023-04-24T16:05:46;14.40;80.20
546;DHT22;259;53.304;9.816;2023-04-24T16:08:12;14.30;80.00
546;DHT22;259;53.304;9.816;2023-04-24T16:10:41;14.30;79.90
546;DHT22;259;53.304;9.816;2023-04-24T16:13:06;14.30;80.00
546;DHT22;259;53.304;9.816;2023-04-24T16:15:33;14.30;79.80
546;DHT22;259;53.304;9.816;2023-04-24T16:18:01;14.30;79.70
546;DHT22;259;53.304;9.816;2023-04-24T16:20:26;14.30;79.60
546;DHT22;259;53.304;9.816;2023-04-24T16:22:52;14.30;79.60
546;DHT22;259;53.304;9.816;2023-04-24T16:25:18;14.30;79.60
546;DHT22;259;53.304;9.816;2023-04-24T16:27:43;14.20;79.50
546;DHT22;259;53.304;9.816;2023-04-24T16:30:11;14.20;79.50
546;DHT22;259;53.304;9.816;2023-04-24T16:32:37;14.20;79.30
546;DHT22;259;53.304;9.816;2023-04-24T16:35:02;14.20;79.20
546;DHT22;259;53.304;9.816;2023-04-24T16:37:29;14.20;79.20
546;DHT22;259;53.304;9.816;2023-04-24T16:39:55;14.10;79.20